sensor_id;sensor_type;location;lat;lon;timestamp;P1;durP1;ratioP1;P2;durP2;ratioP2
20026;SDS011;10174;42.688;23.344;2022-11-20T00:00:27;10.95;;;4.75;;
20026;SDS011;10174;42.688;23.344;2022-11-20T00:02:53;12.48;;;5.55;;
20026;SDS011;10174;42.688;23.344;2022-11-20T00:05:18;10.77;;;5.70;;
20026;SDS011;10174;42.688;23.344;2022-11-20T00:07:44;12.13;;;5.70;;
20026;SDS011;10174;42.688;23.344;2022-11-20T00:10:10;8.82;;;3.22;;
20026;SDS011;10174;42.688;23.344;2022-11-20T00:12:35;10.75;;;4.82;;
20026;SDS011;10174;42.688;23.344;2022-11-20T00:15:00;10.60;;;5.43;;
20026;SDS011;10174;42.688;23.344;2022-11-20T00:17:26;11.70;;;6.07;;
20026;SDS011;10174;42.688;23.344;2022-11-20T00:19:51;10.57;;;6.00;;
20026;SDS011;10174;42.688;23.344;2022-11-20T00:22:17;13.63;;;4.40;;
20026;SDS011;10174;42.688;23.344;2022-11-20T00:24:42;8.23;;;3.03;;
20026;SDS011;10174;42.688;23.344;2022-11-20T00:27:07;5.78;;;3.30;;
20026;SDS011;10174;42.688;23.344;2022-11-20T00:29:33;7.63;;;3.20;;
20026;SDS011;10174;42.688;23.344;2022-11-20T00:31:58;6.47;;;3.40;;
20026;SDS011;10174;42.688;23.344;2022-11-20T00:34:23;9.98;;;4.10;;
20026;SDS011;10174;42.688;23.344;2022-11-20T00:36:49;8.65;;;3.15;;
20026;SDS011;10174;42.688;23.344;2022-11-20T00:39:14;6.32;;;2.00;;
20026;SDS011;10174;42.688;23.344;2022-11-20T00:41:39;8.93;;;3.13;;
20026;SDS011;10174;42.688;23.344;2022-11-20T00:44:05;6.10;;;4.20;;
20026;SDS011;10174;42.688;23.344;2022-11-20T00:46:30;8.30;;;2.35;;
20026;SDS011;10174;42.688;23.344;2022-11-20T00:48:56;6.45;;;2.35;;
20026;SDS011;10174;42.688;23.344;2022-11-20T00:51:22;9.25;;;2.95;;
20026;SDS011;10174;42.688;23.344;2022-11-20T00:53:50;3.78;;;2.03;;
20026;SDS011;10174;42.688;23.344;2022-11-20T00:56:16;3.17;;;1.63;;
20026;SDS011;10174;42.688;23.344;2022-11-20T00:58:44;5.15;;;2.40;;
20026;SDS011;10174;42.688;23.344;2022-11-20T01:03:47;6.23;;;2.20;;
20026;SDS011;10174;42.688;23.344;2022-11-20T01:08:43;6.30;;;2.50;;
20026;SDS011;10174;42.688;23.344;2022-11-20T01:11:13;7.25;;;2.45;;
20026;SDS011;10174;42.688;23.344;2022-11-20T01:13:40;4.13;;;2.35;;
20026;SDS011;10174;42.688;23.344;2022-11-20T01:16:13;4.65;;;2.10;;
20026;SDS011;10174;42.688;23.344;2022-11-20T01:18:45;7.05;;;2.20;;
20026;SDS011;10174;42.688;23.344;2022-11-20T01:21:13;4.15;;;1.77;;
20026;SDS011;10174;42.688;23.344;2022-11-20T01:23:47;8.00;;;1.48;;
20026;SDS011;10174;42.688;23.344;2022-11-20T01:26:17;2.55;;;1.45;;
20026;SDS011;10174;42.688;23.344;2022-11-20T01:28:47;7.57;;;1.98;;
20026;SDS011;10174;42.688;23.344;2022-11-20T01:31:23;5.53;;;1.70;;
20026;SDS011;10174;42.688;23.344;2022-11-20T01:33:50;3.28;;;1.10;;
20026;SDS011;10174;42.688;23.344;2022-11-20T01:36:18;5.07;;;1.48;;
20026;SDS011;10174;42.688;23.344;2022-11-20T01:38:45;4.85;;;1.63;;
20026;SDS011;10174;42.688;23.344;2022-11-20T01:41:11;4.63;;;1.85;;
20026;SDS011;10174;42.688;23.344;2022-11-20T01:43:57;5.50;;;2.10;;
20026;SDS011;10174;42.688;23.344;2022-11-20T01:46:23;7.38;;;2.30;;
20026;SDS011;10174;42.688;23.344;2022-11-20T01:51:24;5.32;;;2.30;;
20026;SDS011;10174;42.688;23.344;2022-11-20T01:54:00;5.13;;;2.10;;
20026;SDS011;10174;42.688;23.344;2022-11-20T01:56:30;12.52;;;5.55;;
20026;SDS011;10174;42.688;23.344;2022-11-20T01:59:02;4.63;;;2.03;;
20026;SDS011;10174;42.688;23.344;2022-11-20T02:01:30;4.97;;;2.08;;
20026;SDS011;10174;42.688;23.344;2022-11-20T02:03:56;10.27;;;2.47;;
20026;SDS011;10174;42.688;23.344;2022-11-20T02:06:35;4.38;;;1.88;;
20026;SDS011;10174;42.688;23.344;2022-11-20T02:09:05;7.32;;;1.67;;
20026;SDS011;10174;42.688;23.344;2022-11-20T02:11:31;6.35;;;1.38;;
20026;SDS011;10174;42.688;23.344;2022-11-20T02:13:56;5.10;;;1.60;;
20026;SDS011;10174;42.688;23.344;2022-11-20T02:16:24;4.95;;;1.42;;
20026;SDS011;10174;42.688;23.344;2022-11-20T02:18:52;3.17;;;1.27;;
20026;SDS011;10174;42.688;23.344;2022-11-20T02:21:34;3.10;;;1.20;;
20026;SDS011;10174;42.688;23.344;2022-11-20T02:26:28;2.63;;;1.38;;
20026;SDS011;10174;42.688;23.344;2022-11-20T02:28:55;2.72;;;1.50;;
20026;SDS011;10174;42.688;23.344;2022-11-20T02:31:23;5.20;;;2.00;;
20026;SDS011;10174;42.688;23.344;2022-11-20T02:33:53;3.88;;;1.52;;
20026;SDS011;10174;42.688;23.344;2022-11-20T02:36:23;3.75;;;1.10;;
20026;SDS011;10174;42.688;23.344;2022-11-20T02:38:51;5.05;;;1.15;;
20026;SDS011;10174;42.688;23.344;2022-11-20T02:41:17;5.55;;;1.25;;
20026;SDS011;10174;42.688;23.344;2022-11-20T02:43:42;2.03;;;1.10;;
20026;SDS011;10174;42.688;23.344;2022-11-20T02:46:08;4.43;;;1.13;;
20026;SDS011;10174;42.688;23.344;2022-11-20T02:48:33;2.15;;;1.20;;
20026;SDS011;10174;42.688;23.344;2022-11-20T02:50:59;1.90;;;0.93;;
20026;SDS011;10174;42.688;23.344;2022-11-20T02:53:24;5.30;;;1.10;;
20026;SDS011;10174;42.688;23.344;2022-11-20T02:55:50;6.05;;;1.35;;
20026;SDS011;10174;42.688;23.344;2022-11-20T02:58:15;2.83;;;0.95;;
20026;SDS011;10174;42.688;23.344;2022-11-20T03:00:41;2.15;;;0.82;;
20026;SDS011;10174;42.688;23.344;2022-11-20T03:03:06;3.22;;;0.98;;
20026;SDS011;10174;42.688;23.344;2022-11-20T03:05:31;7.70;;;1.75;;
20026;SDS011;10174;42.688;23.344;2022-11-20T03:07:57;4.72;;;1.00;;
20026;SDS011;10174;42.688;23.344;2022-11-20T03:10:22;8.20;;;1.33;;
20026;SDS011;10174;42.688;23.344;2022-11-20T03:12:52;4.43;;;1.00;;
20026;SDS011;10174;42.688;23.344;2022-11-20T03:15:19;4.30;;;0.93;;
20026;SDS011;10174;42.688;23.344;2022-11-20T03:17:44;4.20;;;1.15;;
20026;SDS011;10174;42.688;23.344;2022-11-20T03:20:10;5.45;;;1.40;;
20026;SDS011;10174;42.688;23.344;2022-11-20T03:22:35;4.80;;;1.50;;
20026;SDS011;10174;42.688;23.344;2022-11-20T03:25:01;3.70;;;0.90;;
20026;SDS011;10174;42.688;23.344;2022-11-20T03:27:26;7.00;;;1.48;;
20026;SDS011;10174;42.688;23.344;2022-11-20T03:29:52;4.55;;;1.45;;
20026;SDS011;10174;42.688;23.344;2022-11-20T03:32:17;6.65;;;1.20;;
20026;SDS011;10174;42.688;23.344;2022-11-20T03:34:42;7.47;;;1.40;;
20026;SDS011;10174;42.688;23.344;2022-11-20T03:37:08;5.28;;;1.25;;
20026;SDS011;10174;42.688;23.344;2022-11-20T03:39:33;3.08;;;1.20;;
20026;SDS011;10174;42.688;23.344;2022-11-20T03:41:59;4.53;;;1.30;;
20026;SDS011;10174;42.688;23.344;2022-11-20T03:44:24;3.42;;;1.27;;
20026;SDS011;10174;42.688;23.344;2022-11-20T03:46:49;7.10;;;1.02;;
20026;SDS011;10174;42.688;23.344;2022-11-20T03:49:15;6.32;;;1.10;;
20026;SDS011;10174;42.688;23.344;2022-11-20T03:51:40;5.25;;;1.10;;
20026;SDS011;10174;42.688;23.344;2022-11-20T03:54:06;3.55;;;1.10;;
20026;SDS011;10174;42.688;23.344;2022-11-20T03:56:34;3.80;;;1.10;;
20026;SDS011;10174;42.688;23.344;2022-11-20T03:59:01;5.22;;;1.00;;
20026;SDS011;10174;42.688;23.344;2022-11-20T04:01:28;12.25;;;1.30;;
20026;SDS011;10174;42.688;23.344;2022-11-20T04:03:56;2.25;;;1.00;;
20026;SDS011;10174;42.688;23.344;2022-11-20T04:06:25;4.78;;;1.17;;
20026;SDS011;10174;42.688;23.344;2022-11-20T04:08:56;3.88;;;1.30;;
20026;SDS011;10174;42.688;23.344;2022-11-20T04:11:23;7.72;;;1.58;;
20026;SDS011;10174;42.688;23.344;2022-11-20T04:13:51;3.53;;;1.52;;
20026;SDS011;10174;42.688;23.344;2022-11-20T04:16:22;8.00;;;1.60;;
20026;SDS011;10174;42.688;23.344;2022-11-20T04:18:52;4.88;;;1.02;;
20026;SDS011;10174;42.688;23.344;2022-11-20T04:21:22;2.88;;;0.90;;
20026;SDS011;10174;42.688;23.344;2022-11-20T04:23:49;2.80;;;1.00;;
20026;SDS011;10174;42.688;23.344;2022-11-20T04:26:15;3.47;;;1.10;;
20026;SDS011;10174;42.688;23.344;2022-11-20T04:28:40;3.88;;;1.17;;
20026;SDS011;10174;42.688;23.344;2022-11-20T04:31:07;4.57;;;1.15;;
20026;SDS011;10174;42.688;23.344;2022-11-20T04:33:34;6.53;;;1.27;;
20026;SDS011;10174;42.688;23.344;2022-11-20T04:36:05;5.18;;;1.10;;
20026;SDS011;10174;42.688;23.344;2022-11-20T04:38:38;4.07;;;0.98;;
20026;SDS011;10174;42.688;23.344;2022-11-20T04:41:04;4.30;;;1.23;;
20026;SDS011;10174;42.688;23.344;2022-11-20T04:43:32;3.10;;;0.98;;
20026;SDS011;10174;42.688;23.344;2022-11-20T04:45:58;4.25;;;1.20;;
20026;SDS011;10174;42.688;23.344;2022-11-20T04:48:25;3.40;;;1.13;;
20026;SDS011;10174;42.688;23.344;2022-11-20T04:50:51;4.70;;;1.10;;
20026;SDS011;10174;42.688;23.344;2022-11-20T04:53:17;3.22;;;0.95;;
20026;SDS011;10174;42.688;23.344;2022-11-20T04:55:42;3.10;;;0.90;;
20026;SDS011;10174;42.688;23.344;2022-11-20T04:58:08;2.17;;;0.82;;
20026;SDS011;10174;42.688;23.344;2022-11-20T05:00:33;6.82;;;1.38;;
20026;SDS011;10174;42.688;23.344;2022-11-20T05:02:59;4.38;;;0.70;;
20026;SDS011;10174;42.688;23.344;2022-11-20T05:05:24;6.93;;;1.20;;
20026;SDS011;10174;42.688;23.344;2022-11-20T05:07:50;3.15;;;1.00;;
20026;SDS011;10174;42.688;23.344;2022-11-20T05:10:15;3.25;;;0.90;;
20026;SDS011;10174;42.688;23.344;2022-11-20T05:12:41;4.85;;;0.80;;
20026;SDS011;10174;42.688;23.344;2022-11-20T05:15:06;3.47;;;0.95;;
20026;SDS011;10174;42.688;23.344;2022-11-20T05:17:32;3.90;;;0.90;;
20026;SDS011;10174;42.688;23.344;2022-11-20T05:19:57;4.03;;;1.00;;
20026;SDS011;10174;42.688;23.344;2022-11-20T05:22:23;2.58;;;0.80;;
20026;SDS011;10174;42.688;23.344;2022-11-20T05:24:48;5.13;;;0.82;;
20026;SDS011;10174;42.688;23.344;2022-11-20T05:27:14;3.40;;;0.90;;
20026;SDS011;10174;42.688;23.344;2022-11-20T05:29:39;6.40;;;1.30;;
20026;SDS011;10174;42.688;23.344;2022-11-20T05:32:04;4.18;;;1.15;;
20026;SDS011;10174;42.688;23.344;2022-11-20T05:34:32;3.05;;;1.20;;
20026;SDS011;10174;42.688;23.344;2022-11-20T05:36:57;5.70;;;1.48;;
20026;SDS011;10174;42.688;23.344;2022-11-20T05:39:23;3.58;;;1.10;;
20026;SDS011;10174;42.688;23.344;2022-11-20T05:41:48;7.50;;;1.17;;
20026;SDS011;10174;42.688;23.344;2022-11-20T05:44:33;4.75;;;1.48;;
20026;SDS011;10174;42.688;23.344;2022-11-20T05:46:59;6.38;;;1.20;;
20026;SDS011;10174;42.688;23.344;2022-11-20T05:49:24;4.20;;;1.50;;
20026;SDS011;10174;42.688;23.344;2022-11-20T05:51:50;5.72;;;1.50;;
20026;SDS011;10174;42.688;23.344;2022-11-20T05:54:15;6.15;;;1.58;;
20026;SDS011;10174;42.688;23.344;2022-11-20T05:56:40;4.38;;;1.13;;
20026;SDS011;10174;42.688;23.344;2022-11-20T05:59:06;4.32;;;1.35;;
20026;SDS011;10174;42.688;23.344;2022-11-20T06:01:32;6.88;;;1.42;;
20026;SDS011;10174;42.688;23.344;2022-11-20T06:03:57;7.63;;;1.35;;
20026;SDS011;10174;42.688;23.344;2022-11-20T06:06:23;10.70;;;1.40;;
20026;SDS011;10174;42.688;23.344;2022-11-20T06:08:48;7.13;;;1.48;;
20026;SDS011;10174;42.688;23.344;2022-11-20T06:11:14;4.40;;;1.30;;
20026;SDS011;10174;42.688;23.344;2022-11-20T06:13:40;4.65;;;1.17;;
20026;SDS011;10174;42.688;23.344;2022-11-20T06:16:07;6.88;;;1.50;;
20026;SDS011;10174;42.688;23.344;2022-11-20T06:18:32;3.58;;;1.30;;
20026;SDS011;10174;42.688;23.344;2022-11-20T06:21:12;4.70;;;1.27;;
20026;SDS011;10174;42.688;23.344;2022-11-20T06:23:39;4.50;;;1.17;;
20026;SDS011;10174;42.688;23.344;2022-11-20T06:26:06;8.32;;;1.63;;
20026;SDS011;10174;42.688;23.344;2022-11-20T06:28:33;6.47;;;1.40;;
20026;SDS011;10174;42.688;23.344;2022-11-20T06:30:59;14.98;;;1.48;;
20026;SDS011;10174;42.688;23.344;2022-11-20T06:33:25;3.53;;;1.25;;
20026;SDS011;10174;42.688;23.344;2022-11-20T06:35:51;3.20;;;1.15;;
20026;SDS011;10174;42.688;23.344;2022-11-20T06:38:16;4.20;;;1.30;;
20026;SDS011;10174;42.688;23.344;2022-11-20T06:40:42;6.63;;;1.48;;
20026;SDS011;10174;42.688;23.344;2022-11-20T06:43:10;6.28;;;1.15;;
20026;SDS011;10174;42.688;23.344;2022-11-20T06:45:36;9.63;;;1.80;;
20026;SDS011;10174;42.688;23.344;2022-11-20T06:48:01;9.45;;;1.75;;
20026;SDS011;10174;42.688;23.344;2022-11-20T06:50:27;6.50;;;1.60;;
20026;SDS011;10174;42.688;23.344;2022-11-20T06:52:53;6.63;;;1.80;;
20026;SDS011;10174;42.688;23.344;2022-11-20T06:55:18;5.60;;;1.17;;
20026;SDS011;10174;42.688;23.344;2022-11-20T06:57:43;5.03;;;1.40;;
20026;SDS011;10174;42.688;23.344;2022-11-20T07:00:09;7.78;;;1.77;;
20026;SDS011;10174;42.688;23.344;2022-11-20T07:02:35;6.20;;;1.60;;
20026;SDS011;10174;42.688;23.344;2022-11-20T07:05:00;5.80;;;1.70;;
20026;SDS011;10174;42.688;23.344;2022-11-20T07:07:25;6.38;;;1.83;;
20026;SDS011;10174;42.688;23.344;2022-11-20T07:09:51;4.88;;;1.70;;
20026;SDS011;10174;42.688;23.344;2022-11-20T07:12:16;5.30;;;1.95;;
20026;SDS011;10174;42.688;23.344;2022-11-20T07:14:41;10.32;;;1.80;;
20026;SDS011;10174;42.688;23.344;2022-11-20T07:17:07;4.97;;;1.75;;
20026;SDS011;10174;42.688;23.344;2022-11-20T07:19:32;5.60;;;1.52;;
20026;SDS011;10174;42.688;23.344;2022-11-20T07:21:57;6.07;;;1.63;;
20026;SDS011;10174;42.688;23.344;2022-11-20T07:24:23;7.43;;;1.70;;
20026;SDS011;10174;42.688;23.344;2022-11-20T07:26:48;11.85;;;1.80;;
20026;SDS011;10174;42.688;23.344;2022-11-20T07:29:14;4.32;;;1.63;;
20026;SDS011;10174;42.688;23.344;2022-11-20T07:31:40;12.57;;;1.77;;
20026;SDS011;10174;42.688;23.344;2022-11-20T07:34:05;7.63;;;1.92;;
20026;SDS011;10174;42.688;23.344;2022-11-20T07:36:30;6.95;;;1.70;;
20026;SDS011;10174;42.688;23.344;2022-11-20T07:38:56;11.50;;;2.00;;
20026;SDS011;10174;42.688;23.344;2022-11-20T07:41:21;6.65;;;1.40;;
20026;SDS011;10174;42.688;23.344;2022-11-20T07:43:47;9.57;;;1.92;;
20026;SDS011;10174;42.688;23.344;2022-11-20T07:46:12;4.80;;;1.92;;
20026;SDS011;10174;42.688;23.344;2022-11-20T07:48:37;9.65;;;2.20;;
20026;SDS011;10174;42.688;23.344;2022-11-20T07:51:03;6.25;;;2.05;;
20026;SDS011;10174;42.688;23.344;2022-11-20T07:53:28;5.13;;;1.33;;
20026;SDS011;10174;42.688;23.344;2022-11-20T07:55:54;8.73;;;1.83;;
20026;SDS011;10174;42.688;23.344;2022-11-20T07:58:19;12.20;;;1.80;;
20026;SDS011;10174;42.688;23.344;2022-11-20T08:00:45;5.30;;;2.00;;
20026;SDS011;10174;42.688;23.344;2022-11-20T08:03:11;17.58;;;1.88;;
20026;SDS011;10174;42.688;23.344;2022-11-20T08:05:36;5.32;;;1.63;;
20026;SDS011;10174;42.688;23.344;2022-11-20T08:08:02;8.45;;;1.88;;
20026;SDS011;10174;42.688;23.344;2022-11-20T08:10:28;8.88;;;1.80;;
20026;SDS011;10174;42.688;23.344;2022-11-20T08:12:53;7.32;;;1.90;;
20026;SDS011;10174;42.688;23.344;2022-11-20T08:15:38;11.27;;;2.75;;
20026;SDS011;10174;42.688;23.344;2022-11-20T08:18:05;7.22;;;3.00;;
20026;SDS011;10174;42.688;23.344;2022-11-20T08:20:32;9.07;;;2.92;;
20026;SDS011;10174;42.688;23.344;2022-11-20T08:23:02;12.15;;;2.38;;
20026;SDS011;10174;42.688;23.344;2022-11-20T08:25:30;9.38;;;1.85;;
20026;SDS011;10174;42.688;23.344;2022-11-20T08:28:00;13.68;;;3.42;;
20026;SDS011;10174;42.688;23.344;2022-11-20T08:30:28;9.18;;;2.70;;
20026;SDS011;10174;42.688;23.344;2022-11-20T08:32:54;7.82;;;2.25;;
20026;SDS011;10174;42.688;23.344;2022-11-20T08:35:20;10.48;;;2.33;;
20026;SDS011;10174;42.688;23.344;2022-11-20T08:37:46;9.00;;;2.58;;
20026;SDS011;10174;42.688;23.344;2022-11-20T08:40:12;12.88;;;2.15;;
20026;SDS011;10174;42.688;23.344;2022-11-20T08:42:45;8.02;;;2.30;;
20026;SDS011;10174;42.688;23.344;2022-11-20T08:45:11;9.18;;;3.20;;
20026;SDS011;10174;42.688;23.344;2022-11-20T08:47:37;8.90;;;3.25;;
20026;SDS011;10174;42.688;23.344;2022-11-20T08:50:02;10.90;;;2.90;;
20026;SDS011;10174;42.688;23.344;2022-11-20T08:52:27;12.82;;;2.28;;
20026;SDS011;10174;42.688;23.344;2022-11-20T08:54:53;12.95;;;3.65;;
20026;SDS011;10174;42.688;23.344;2022-11-20T08:57:18;10.77;;;2.80;;
20026;SDS011;10174;42.688;23.344;2022-11-20T08:59:43;9.57;;;1.40;;
20026;SDS011;10174;42.688;23.344;2022-11-20T09:02:09;10.57;;;1.80;;
20026;SDS011;10174;42.688;23.344;2022-11-20T09:04:34;3.90;;;1.80;;
20026;SDS011;10174;42.688;23.344;2022-11-20T09:07:00;7.35;;;2.45;;
20026;SDS011;10174;42.688;23.344;2022-11-20T09:09:25;9.57;;;2.10;;
20026;SDS011;10174;42.688;23.344;2022-11-20T09:11:50;11.80;;;5.07;;
20026;SDS011;10174;42.688;23.344;2022-11-20T09:14:16;8.68;;;2.90;;
20026;SDS011;10174;42.688;23.344;2022-11-20T09:16:41;10.68;;;3.00;;
20026;SDS011;10174;42.688;23.344;2022-11-20T09:19:07;9.90;;;2.35;;
20026;SDS011;10174;42.688;23.344;2022-11-20T09:21:32;10.35;;;3.10;;
20026;SDS011;10174;42.688;23.344;2022-11-20T09:23:57;7.47;;;3.00;;
20026;SDS011;10174;42.688;23.344;2022-11-20T09:26:23;9.98;;;3.90;;
20026;SDS011;10174;42.688;23.344;2022-11-20T09:28:48;15.98;;;3.40;;
20026;SDS011;10174;42.688;23.344;2022-11-20T09:31:17;9.55;;;2.50;;
20026;SDS011;10174;42.688;23.344;2022-11-20T09:33:47;9.40;;;4.70;;
20026;SDS011;10174;42.688;23.344;2022-11-20T09:36:12;3.67;;;1.80;;
20026;SDS011;10174;42.688;23.344;2022-11-20T09:38:37;5.25;;;2.17;;
20026;SDS011;10174;42.688;23.344;2022-11-20T09:41:03;8.77;;;1.42;;
20026;SDS011;10174;42.688;23.344;2022-11-20T09:46:24;8.45;;;1.58;;
20026;SDS011;10174;42.688;23.344;2022-11-20T09:49:00;5.03;;;2.38;;
20026;SDS011;10174;42.688;23.344;2022-11-20T09:51:43;7.68;;;2.92;;
20026;SDS011;10174;42.688;23.344;2022-11-20T09:54:22;8.85;;;3.53;;
20026;SDS011;10174;42.688;23.344;2022-11-20T09:57:00;6.22;;;2.45;;
20026;SDS011;10174;42.688;23.344;2022-11-20T09:59:40;5.78;;;3.28;;
20026;SDS011;10174;42.688;23.344;2022-11-20T10:02:25;19.02;;;2.20;;
20026;SDS011;10174;42.688;23.344;2022-11-20T10:04:54;7.43;;;2.97;;
20026;SDS011;10174;42.688;23.344;2022-11-20T10:07:59;15.60;;;4.30;;
20026;SDS011;10174;42.688;23.344;2022-11-20T10:13:14;13.60;;;5.35;;
20026;SDS011;10174;42.688;23.344;2022-11-20T10:21:08;20.73;;;6.43;;
20026;SDS011;10174;42.688;23.344;2022-11-20T10:29:28;12.48;;;5.15;;
20026;SDS011;10174;42.688;23.344;2022-11-20T10:32:00;12.93;;;4.95;;
20026;SDS011;10174;42.688;23.344;2022-11-20T10:36:58;14.43;;;4.57;;
20026;SDS011;10174;42.688;23.344;2022-11-20T10:39:31;12.13;;;4.73;;
20026;SDS011;10174;42.688;23.344;2022-11-20T10:42:02;13.77;;;4.45;;
20026;SDS011;10174;42.688;23.344;2022-11-20T10:44:35;19.33;;;4.97;;
20026;SDS011;10174;42.688;23.344;2022-11-20T10:47:20;12.95;;;4.88;;
20026;SDS011;10174;42.688;23.344;2022-11-20T10:49:48;10.23;;;4.55;;
20026;SDS011;10174;42.688;23.344;2022-11-20T10:54:59;13.68;;;5.45;;
20026;SDS011;10174;42.688;23.344;2022-11-20T10:57:40;20.05;;;5.70;;
20026;SDS011;10174;42.688;23.344;2022-11-20T11:00:32;17.40;;;6.60;;
20026;SDS011;10174;42.688;23.344;2022-11-20T11:02:57;18.35;;;5.68;;
20026;SDS011;10174;42.688;23.344;2022-11-20T11:05:33;17.90;;;6.65;;
20026;SDS011;10174;42.688;23.344;2022-11-20T11:08:04;16.42;;;6.28;;
20026;SDS011;10174;42.688;23.344;2022-11-20T11:10:56;18.40;;;5.05;;
20026;SDS011;10174;42.688;23.344;2022-11-20T11:13:25;11.98;;;2.70;;
20026;SDS011;10174;42.688;23.344;2022-11-20T11:15:53;20.90;;;3.50;;
20026;SDS011;10174;42.688;23.344;2022-11-20T11:18:37;7.40;;;2.20;;
20026;SDS011;10174;42.688;23.344;2022-11-20T11:21:03;10.63;;;3.20;;
20026;SDS011;10174;42.688;23.344;2022-11-20T11:26:02;20.15;;;6.65;;
20026;SDS011;10174;42.688;23.344;2022-11-20T11:28:30;4.38;;;1.52;;
20026;SDS011;10174;42.688;23.344;2022-11-20T11:30:55;4.45;;;2.22;;
20026;SDS011;10174;42.688;23.344;2022-11-20T11:35:51;15.50;;;4.57;;
20026;SDS011;10174;42.688;23.344;2022-11-20T11:41:05;8.20;;;2.85;;
20026;SDS011;10174;42.688;23.344;2022-11-20T11:43:32;11.20;;;3.28;;
20026;SDS011;10174;42.688;23.344;2022-11-20T11:46:32;19.45;;;5.22;;
20026;SDS011;10174;42.688;23.344;2022-11-20T11:54:45;7.68;;;1.73;;
20026;SDS011;10174;42.688;23.344;2022-11-20T11:57:29;2.08;;;1.15;;
20026;SDS011;10174;42.688;23.344;2022-11-20T12:00:16;9.60;;;2.35;;
20026;SDS011;10174;42.688;23.344;2022-11-20T12:08:17;14.52;;;3.03;;
20026;SDS011;10174;42.688;23.344;2022-11-20T12:11:13;5.35;;;1.27;;
20026;SDS011;10174;42.688;23.344;2022-11-20T12:13:50;8.00;;;1.65;;
20026;SDS011;10174;42.688;23.344;2022-11-20T12:16:20;8.02;;;1.60;;
20026;SDS011;10174;42.688;23.344;2022-11-20T12:18:47;9.98;;;2.05;;
20026;SDS011;10174;42.688;23.344;2022-11-20T12:21:28;14.10;;;2.30;;
20026;SDS011;10174;42.688;23.344;2022-11-20T12:43:21;8.52;;;2.20;;
20026;SDS011;10174;42.688;23.344;2022-11-20T12:49:32;4.90;;;1.80;;
20026;SDS011;10174;42.688;23.344;2022-11-20T12:57:40;8.23;;;2.38;;
20026;SDS011;10174;42.688;23.344;2022-11-20T13:00:18;9.02;;;3.25;;
20026;SDS011;10174;42.688;23.344;2022-11-20T13:05:37;7.80;;;3.03;;
20026;SDS011;10174;42.688;23.344;2022-11-20T13:08:33;10.40;;;3.00;;
20026;SDS011;10174;42.688;23.344;2022-11-20T13:11:09;7.53;;;2.67;;
20026;SDS011;10174;42.688;23.344;2022-11-20T13:16:37;9.65;;;2.97;;
20026;SDS011;10174;42.688;23.344;2022-11-20T13:19:11;7.88;;;3.70;;
20026;SDS011;10174;42.688;23.344;2022-11-20T13:21:40;7.22;;;3.03;;
20026;SDS011;10174;42.688;23.344;2022-11-20T13:24:18;14.48;;;3.55;;
20026;SDS011;10174;42.688;23.344;2022-11-20T13:26:45;8.75;;;3.65;;
20026;SDS011;10174;42.688;23.344;2022-11-20T13:29:12;7.53;;;3.60;;
20026;SDS011;10174;42.688;23.344;2022-11-20T13:31:43;12.73;;;4.63;;
20026;SDS011;10174;42.688;23.344;2022-11-20T13:34:14;13.23;;;3.65;;
20026;SDS011;10174;42.688;23.344;2022-11-20T13:36:50;13.52;;;4.35;;
20026;SDS011;10174;42.688;23.344;2022-11-20T13:41:59;10.57;;;4.65;;
20026;SDS011;10174;42.688;23.344;2022-11-20T13:44:29;16.33;;;4.65;;
20026;SDS011;10174;42.688;23.344;2022-11-20T13:46:54;8.52;;;4.10;;
20026;SDS011;10174;42.688;23.344;2022-11-20T14:02:20;11.30;;;4.40;;
20026;SDS011;10174;42.688;23.344;2022-11-20T14:04:48;13.38;;;3.97;;
20026;SDS011;10174;42.688;23.344;2022-11-20T14:07:16;12.98;;;4.32;;
20026;SDS011;10174;42.688;23.344;2022-11-20T14:09:54;13.73;;;4.75;;
20026;SDS011;10174;42.688;23.344;2022-11-20T14:12:22;10.85;;;4.55;;
20026;SDS011;10174;42.688;23.344;2022-11-20T14:14:53;10.70;;;4.80;;
20026;SDS011;10174;42.688;23.344;2022-11-20T14:19:48;15.48;;;5.00;;
20026;SDS011;10174;42.688;23.344;2022-11-20T14:22:19;12.50;;;6.03;;
20026;SDS011;10174;42.688;23.344;2022-11-20T14:25:00;15.93;;;4.70;;
20026;SDS011;10174;42.688;23.344;2022-11-20T14:27:28;14.75;;;5.60;;
20026;SDS011;10174;42.688;23.344;2022-11-20T14:29:53;12.10;;;5.43;;
20026;SDS011;10174;42.688;23.344;2022-11-20T14:32:20;11.43;;;4.68;;
20026;SDS011;10174;42.688;23.344;2022-11-20T14:34:51;11.60;;;4.43;;
20026;SDS011;10174;42.688;23.344;2022-11-20T14:37:20;15.55;;;6.22;;
20026;SDS011;10174;42.688;23.344;2022-11-20T14:39:55;19.67;;;6.93;;
20026;SDS011;10174;42.688;23.344;2022-11-20T14:42:24;13.88;;;6.20;;
20026;SDS011;10174;42.688;23.344;2022-11-20T14:44:52;15.13;;;7.10;;
20026;SDS011;10174;42.688;23.344;2022-11-20T14:47:21;21.88;;;6.63;;
20026;SDS011;10174;42.688;23.344;2022-11-20T14:49:50;14.85;;;6.22;;
20026;SDS011;10174;42.688;23.344;2022-11-20T14:52:18;15.32;;;6.03;;
20026;SDS011;10174;42.688;23.344;2022-11-20T14:54:49;15.88;;;6.35;;
20026;SDS011;10174;42.688;23.344;2022-11-20T15:00:02;10.63;;;5.05;;
20026;SDS011;10174;42.688;23.344;2022-11-20T15:02:29;18.90;;;6.05;;
20026;SDS011;10174;42.688;23.344;2022-11-20T15:04:58;12.38;;;5.47;;
20026;SDS011;10174;42.688;23.344;2022-11-20T15:07:37;17.60;;;5.68;;
20026;SDS011;10174;42.688;23.344;2022-11-20T15:10:09;11.07;;;4.10;;
20026;SDS011;10174;42.688;23.344;2022-11-20T15:12:47;7.53;;;4.25;;
20026;SDS011;10174;42.688;23.344;2022-11-20T15:15:17;13.68;;;4.40;;
20026;SDS011;10174;42.688;23.344;2022-11-20T15:17:50;9.25;;;5.25;;
20026;SDS011;10174;42.688;23.344;2022-11-20T15:20:16;6.72;;;3.55;;
20026;SDS011;10174;42.688;23.344;2022-11-20T15:22:42;7.25;;;3.47;;
20026;SDS011;10174;42.688;23.344;2022-11-20T15:25:14;7.32;;;3.63;;
20026;SDS011;10174;42.688;23.344;2022-11-20T15:27:42;7.13;;;3.30;;
20026;SDS011;10174;42.688;23.344;2022-11-20T15:30:15;10.63;;;3.83;;
20026;SDS011;10174;42.688;23.344;2022-11-20T15:32:43;12.73;;;3.53;;
20026;SDS011;10174;42.688;23.344;2022-11-20T15:35:09;8.63;;;3.67;;
20026;SDS011;10174;42.688;23.344;2022-11-20T15:37:36;10.35;;;4.30;;
20026;SDS011;10174;42.688;23.344;2022-11-20T15:40:02;12.98;;;4.82;;
20026;SDS011;10174;42.688;23.344;2022-11-20T15:42:28;10.18;;;4.40;;
20026;SDS011;10174;42.688;23.344;2022-11-20T15:44:54;10.00;;;4.30;;
20026;SDS011;10174;42.688;23.344;2022-11-20T15:47:19;7.75;;;4.32;;
20026;SDS011;10174;42.688;23.344;2022-11-20T15:49:51;7.68;;;3.75;;
20026;SDS011;10174;42.688;23.344;2022-11-20T15:52:16;7.43;;;3.28;;
20026;SDS011;10174;42.688;23.344;2022-11-20T15:54:42;4.75;;;2.70;;
20026;SDS011;10174;42.688;23.344;2022-11-20T15:57:07;8.80;;;2.55;;
20026;SDS011;10174;42.688;23.344;2022-11-20T15:59:33;6.15;;;2.20;;
20026;SDS011;10174;42.688;23.344;2022-11-20T16:01:59;6.40;;;2.03;;
20026;SDS011;10174;42.688;23.344;2022-11-20T16:04:24;6.97;;;2.28;;
20026;SDS011;10174;42.688;23.344;2022-11-20T16:06:50;9.23;;;2.20;;
20026;SDS011;10174;42.688;23.344;2022-11-20T16:09:15;6.60;;;2.60;;
20026;SDS011;10174;42.688;23.344;2022-11-20T16:11:40;6.85;;;2.33;;
20026;SDS011;10174;42.688;23.344;2022-11-20T16:14:06;5.63;;;2.50;;
20026;SDS011;10174;42.688;23.344;2022-11-20T16:16:53;8.38;;;2.97;;
20026;SDS011;10174;42.688;23.344;2022-11-20T16:19:18;10.90;;;3.67;;
20026;SDS011;10174;42.688;23.344;2022-11-20T16:21:44;7.70;;;2.78;;
20026;SDS011;10174;42.688;23.344;2022-11-20T16:24:11;6.00;;;3.10;;